Terminal Aerodrome Forecast
Issued by NWS

Home | Current Version | Previous Version | Text Only | Print | Product List | Glossary On
Versions: 1 2 3 4 5 6 7 8 9 10 11 12 13
000
FTUS42 TJSJ 310520
TAFJPS
TAF
TJPS 310520Z 3106/0106 08006KT P6SM VCSH SCT025 SCT050
     FM311300 09010G20KT P6SM -TSRA BKN025CB BKN040
     FM311800 12014G22KT 4SM -RA OVC050=

USA.gov is the U.S. government's official web portal to all federal, state and local government web resources and services.